sensor_id;sensor_type;location;lat;lon;timestamp;P1;durP1;ratioP1;P2;durP2;ratioP2
20179;SDS011;10249;48.900;9.090;2023-12-20T00:01:24;8.20;;;7.90;;
20179;SDS011;10249;48.900;9.090;2023-12-20T00:03:53;8.40;;;8.10;;
20179;SDS011;10249;48.900;9.090;2023-12-20T00:06:20;7.90;;;7.70;;
20179;SDS011;10249;48.900;9.090;2023-12-20T00:08:47;7.80;;;7.60;;
20179;SDS011;10249;48.900;9.090;2023-12-20T00:11:14;7.83;;;7.63;;
20179;SDS011;10249;48.900;9.090;2023-12-20T00:13:41;8.40;;;8.13;;
20179;SDS011;10249;48.900;9.090;2023-12-20T00:16:09;7.40;;;7.20;;
20179;SDS011;10249;48.900;9.090;2023-12-20T00:18:36;7.20;;;7.00;;
20179;SDS011;10249;48.900;9.090;2023-12-20T00:21:05;6.80;;;6.60;;
20179;SDS011;10249;48.900;9.090;2023-12-20T00:23:32;6.70;;;6.50;;
20179;SDS011;10249;48.900;9.090;2023-12-20T00:25:59;7.00;;;6.80;;
20179;SDS011;10249;48.900;9.090;2023-12-20T00:28:26;6.80;;;6.60;;
20179;SDS011;10249;48.900;9.090;2023-12-20T00:30:53;6.90;;;6.70;;
20179;SDS011;10249;48.900;9.090;2023-12-20T00:33:20;6.77;;;6.57;;
20179;SDS011;10249;48.900;9.090;2023-12-20T00:35:48;6.37;;;6.17;;
20179;SDS011;10249;48.900;9.090;2023-12-20T00:38:17;6.63;;;6.43;;
20179;SDS011;10249;48.900;9.090;2023-12-20T00:40:44;6.40;;;6.20;;
20179;SDS011;10249;48.900;9.090;2023-12-20T00:43:11;5.80;;;5.60;;
20179;SDS011;10249;48.900;9.090;2023-12-20T00:45:38;5.80;;;5.60;;
20179;SDS011;10249;48.900;9.090;2023-12-20T00:48:05;5.67;;;5.47;;
20179;SDS011;10249;48.900;9.090;2023-12-20T00:50:32;5.40;;;5.20;;
20179;SDS011;10249;48.900;9.090;2023-12-20T00:53:00;5.70;;;5.50;;
20179;SDS011;10249;48.900;9.090;2023-12-20T00:55:29;5.60;;;5.40;;
20179;SDS011;10249;48.900;9.090;2023-12-20T00:57:56;5.53;;;5.33;;
20179;SDS011;10249;48.900;9.090;2023-12-20T01:00:24;5.50;;;5.30;;
20179;SDS011;10249;48.900;9.090;2023-12-20T01:02:51;5.27;;;5.10;;
20179;SDS011;10249;48.900;9.090;2023-12-20T01:05:18;5.60;;;5.40;;
20179;SDS011;10249;48.900;9.090;2023-12-20T01:07:48;5.33;;;5.13;;
20179;SDS011;10249;48.900;9.090;2023-12-20T01:10:15;4.90;;;4.80;;
20179;SDS011;10249;48.900;9.090;2023-12-20T01:12:44;4.40;;;4.30;;
20179;SDS011;10249;48.900;9.090;2023-12-20T01:15:11;4.50;;;4.40;;
20179;SDS011;10249;48.900;9.090;2023-12-20T01:17:38;4.43;;;4.33;;
20179;SDS011;10249;48.900;9.090;2023-12-20T01:20:06;4.20;;;4.10;;
20179;SDS011;10249;48.900;9.090;2023-12-20T01:22:34;4.17;;;4.07;;
20179;SDS011;10249;48.900;9.090;2023-12-20T01:25:01;3.83;;;3.73;;
20179;SDS011;10249;48.900;9.090;2023-12-20T01:27:28;3.60;;;3.50;;
20179;SDS011;10249;48.900;9.090;2023-12-20T01:29:57;3.63;;;3.53;;
20179;SDS011;10249;48.900;9.090;2023-12-20T01:32:24;3.50;;;3.40;;
20179;SDS011;10249;48.900;9.090;2023-12-20T01:34:51;3.27;;;3.17;;
20179;SDS011;10249;48.900;9.090;2023-12-20T01:37:18;3.10;;;3.00;;
20179;SDS011;10249;48.900;9.090;2023-12-20T01:39:45;3.10;;;3.00;;
20179;SDS011;10249;48.900;9.090;2023-12-20T01:42:12;3.20;;;3.10;;
20179;SDS011;10249;48.900;9.090;2023-12-20T01:44:39;3.40;;;3.30;;
20179;SDS011;10249;48.900;9.090;2023-12-20T01:47:08;3.30;;;3.20;;
20179;SDS011;10249;48.900;9.090;2023-12-20T01:49:35;3.10;;;3.00;;
20179;SDS011;10249;48.900;9.090;2023-12-20T01:52:03;3.50;;;3.40;;
20179;SDS011;10249;48.900;9.090;2023-12-20T01:54:30;3.20;;;3.10;;
20179;SDS011;10249;48.900;9.090;2023-12-20T01:56:59;3.00;;;2.90;;
20179;SDS011;10249;48.900;9.090;2023-12-20T01:59:26;2.70;;;2.60;;
20179;SDS011;10249;48.900;9.090;2023-12-20T02:01:55;2.90;;;2.80;;
20179;SDS011;10249;48.900;9.090;2023-12-20T02:04:23;3.10;;;3.00;;
20179;SDS011;10249;48.900;9.090;2023-12-20T02:06:52;2.90;;;2.80;;
20179;SDS011;10249;48.900;9.090;2023-12-20T02:09:19;2.83;;;2.73;;
20179;SDS011;10249;48.900;9.090;2023-12-20T02:11:46;3.00;;;2.90;;
20179;SDS011;10249;48.900;9.090;2023-12-20T02:14:13;2.90;;;2.80;;
20179;SDS011;10249;48.900;9.090;2023-12-20T02:16:40;3.10;;;3.00;;
20179;SDS011;10249;48.900;9.090;2023-12-20T02:19:09;2.70;;;2.60;;
20179;SDS011;10249;48.900;9.090;2023-12-20T02:21:39;3.97;;;3.73;;
20179;SDS011;10249;48.900;9.090;2023-12-20T02:24:06;3.00;;;2.90;;
20179;SDS011;10249;48.900;9.090;2023-12-20T02:26:33;3.00;;;2.90;;
20179;SDS011;10249;48.900;9.090;2023-12-20T02:29:00;3.13;;;3.03;;
20179;SDS011;10249;48.900;9.090;2023-12-20T02:31:28;3.13;;;3.03;;
20179;SDS011;10249;48.900;9.090;2023-12-20T02:33:55;3.27;;;3.17;;
20179;SDS011;10249;48.900;9.090;2023-12-20T02:36:22;3.30;;;3.20;;
20179;SDS011;10249;48.900;9.090;2023-12-20T02:38:51;4.37;;;4.20;;
20179;SDS011;10249;48.900;9.090;2023-12-20T02:41:18;3.70;;;3.60;;
20179;SDS011;10249;48.900;9.090;2023-12-20T02:43:45;4.00;;;3.90;;
20179;SDS011;10249;48.900;9.090;2023-12-20T02:46:12;4.10;;;4.00;;
20179;SDS011;10249;48.900;9.090;2023-12-20T02:48:40;3.87;;;3.77;;
20179;SDS011;10249;48.900;9.090;2023-12-20T02:51:07;4.20;;;4.10;;
20179;SDS011;10249;48.900;9.090;2023-12-20T02:53:34;4.03;;;3.93;;
20179;SDS011;10249;48.900;9.090;2023-12-20T02:56:03;4.30;;;4.20;;
20179;SDS011;10249;48.900;9.090;2023-12-20T02:58:30;4.50;;;4.40;;
20179;SDS011;10249;48.900;9.090;2023-12-20T03:00:57;4.70;;;4.60;;
20179;SDS011;10249;48.900;9.090;2023-12-20T03:03:24;4.37;;;4.27;;
20179;SDS011;10249;48.900;9.090;2023-12-20T03:05:50;4.30;;;4.20;;
20179;SDS011;10249;48.900;9.090;2023-12-20T03:08:17;4.50;;;4.40;;
20179;SDS011;10249;48.900;9.090;2023-12-20T03:10:44;4.43;;;4.33;;
20179;SDS011;10249;48.900;9.090;2023-12-20T03:13:13;4.57;;;4.47;;
20179;SDS011;10249;48.900;9.090;2023-12-20T03:15:40;4.53;;;4.33;;
20179;SDS011;10249;48.900;9.090;2023-12-20T03:18:07;4.53;;;4.43;;
20179;SDS011;10249;48.900;9.090;2023-12-20T03:20:34;4.63;;;4.53;;
20179;SDS011;10249;48.900;9.090;2023-12-20T03:23:01;4.30;;;4.20;;
20179;SDS011;10249;48.900;9.090;2023-12-20T03:25:28;4.40;;;4.30;;
20179;SDS011;10249;48.900;9.090;2023-12-20T03:27:55;4.53;;;4.37;;
20179;SDS011;10249;48.900;9.090;2023-12-20T03:30:24;4.30;;;4.20;;
20179;SDS011;10249;48.900;9.090;2023-12-20T03:32:51;4.10;;;4.00;;
20179;SDS011;10249;48.900;9.090;2023-12-20T03:35:18;3.70;;;3.60;;
20179;SDS011;10249;48.900;9.090;2023-12-20T03:37:45;3.90;;;3.80;;
20179;SDS011;10249;48.900;9.090;2023-12-20T03:40:12;3.90;;;3.80;;
20179;SDS011;10249;48.900;9.090;2023-12-20T03:42:39;3.73;;;3.63;;
20179;SDS011;10249;48.900;9.090;2023-12-20T03:45:07;4.10;;;4.00;;
20179;SDS011;10249;48.900;9.090;2023-12-20T03:47:35;4.03;;;3.93;;
20179;SDS011;10249;48.900;9.090;2023-12-20T03:50:03;4.57;;;4.47;;
20179;SDS011;10249;48.900;9.090;2023-12-20T03:52:30;4.23;;;4.13;;
20179;SDS011;10249;48.900;9.090;2023-12-20T03:54:57;4.60;;;4.50;;
20179;SDS011;10249;48.900;9.090;2023-12-20T03:57:25;4.43;;;4.33;;
20179;SDS011;10249;48.900;9.090;2023-12-20T03:59:53;4.20;;;4.10;;
20179;SDS011;10249;48.900;9.090;2023-12-20T04:02:20;4.00;;;3.90;;
20179;SDS011;10249;48.900;9.090;2023-12-20T04:04:48;4.23;;;4.13;;
20179;SDS011;10249;48.900;9.090;2023-12-20T04:07:18;4.17;;;4.07;;
20179;SDS011;10249;48.900;9.090;2023-12-20T04:09:45;4.40;;;4.30;;
20179;SDS011;10249;48.900;9.090;2023-12-20T04:12:13;4.80;;;4.70;;
20179;SDS011;10249;48.900;9.090;2023-12-20T04:14:40;4.53;;;4.43;;
20179;SDS011;10249;48.900;9.090;2023-12-20T04:17:07;4.40;;;4.30;;
20179;SDS011;10249;48.900;9.090;2023-12-20T04:19:34;4.30;;;4.20;;
20179;SDS011;10249;48.900;9.090;2023-12-20T04:22:02;5.10;;;4.90;;
20179;SDS011;10249;48.900;9.090;2023-12-20T04:24:30;4.17;;;4.07;;
20179;SDS011;10249;48.900;9.090;2023-12-20T04:26:57;4.17;;;4.07;;
20179;SDS011;10249;48.900;9.090;2023-12-20T04:29:24;4.57;;;4.43;;
20179;SDS011;10249;48.900;9.090;2023-12-20T04:31:51;4.20;;;4.10;;
20179;SDS011;10249;48.900;9.090;2023-12-20T04:34:18;4.30;;;4.20;;
20179;SDS011;10249;48.900;9.090;2023-12-20T04:36:45;4.33;;;4.23;;
20179;SDS011;10249;48.900;9.090;2023-12-20T04:39:14;5.23;;;5.03;;
20179;SDS011;10249;48.900;9.090;2023-12-20T04:41:41;4.50;;;4.40;;
20179;SDS011;10249;48.900;9.090;2023-12-20T04:44:08;5.00;;;4.90;;
20179;SDS011;10249;48.900;9.090;2023-12-20T04:46:35;4.50;;;4.40;;
20179;SDS011;10249;48.900;9.090;2023-12-20T04:49:03;4.80;;;4.70;;
20179;SDS011;10249;48.900;9.090;2023-12-20T04:51:30;5.40;;;5.20;;
20179;SDS011;10249;48.900;9.090;2023-12-20T04:53:59;4.80;;;4.70;;
20179;SDS011;10249;48.900;9.090;2023-12-20T04:56:28;4.60;;;4.50;;
20179;SDS011;10249;48.900;9.090;2023-12-20T04:58:55;5.00;;;4.90;;
20179;SDS011;10249;48.900;9.090;2023-12-20T05:01:22;4.70;;;4.60;;
20179;SDS011;10249;48.900;9.090;2023-12-20T05:03:49;4.57;;;4.47;;
20179;SDS011;10249;48.900;9.090;2023-12-20T05:06:17;4.40;;;4.30;;
20179;SDS011;10249;48.900;9.090;2023-12-20T05:08:44;4.30;;;4.20;;
20179;SDS011;10249;48.900;9.090;2023-12-20T05:11:11;4.90;;;4.70;;
20179;SDS011;10249;48.900;9.090;2023-12-20T05:13:40;4.60;;;4.50;;
20179;SDS011;10249;48.900;9.090;2023-12-20T05:16:07;4.00;;;3.90;;
20179;SDS011;10249;48.900;9.090;2023-12-20T05:18:35;3.70;;;3.60;;
20179;SDS011;10249;48.900;9.090;2023-12-20T05:21:02;3.40;;;3.30;;
20179;SDS011;10249;48.900;9.090;2023-12-20T05:23:29;3.30;;;3.20;;
20179;SDS011;10249;48.900;9.090;2023-12-20T05:25:56;3.30;;;3.20;;
20179;SDS011;10249;48.900;9.090;2023-12-20T05:28:24;3.27;;;3.17;;
20179;SDS011;10249;48.900;9.090;2023-12-20T05:30:53;2.90;;;2.80;;
20179;SDS011;10249;48.900;9.090;2023-12-20T05:33:20;3.10;;;3.00;;
20179;SDS011;10249;48.900;9.090;2023-12-20T05:35:48;3.20;;;3.10;;
20179;SDS011;10249;48.900;9.090;2023-12-20T05:38:15;3.23;;;3.13;;
20179;SDS011;10249;48.900;9.090;2023-12-20T05:40:41;3.10;;;3.00;;
20179;SDS011;10249;48.900;9.090;2023-12-20T05:43:08;3.10;;;3.00;;
20179;SDS011;10249;48.900;9.090;2023-12-20T05:45:35;2.80;;;2.70;;
20179;SDS011;10249;48.900;9.090;2023-12-20T05:48:04;2.60;;;2.50;;
20179;SDS011;10249;48.900;9.090;2023-12-20T05:50:31;2.30;;;2.20;;
20179;SDS011;10249;48.900;9.090;2023-12-20T05:53:00;2.30;;;2.20;;
20179;SDS011;10249;48.900;9.090;2023-12-20T05:55:27;2.50;;;2.40;;
20179;SDS011;10249;48.900;9.090;2023-12-20T05:57:54;3.00;;;2.90;;
20179;SDS011;10249;48.900;9.090;2023-12-20T06:00:21;3.47;;;3.37;;
20179;SDS011;10249;48.900;9.090;2023-12-20T06:02:48;2.70;;;2.60;;
20179;SDS011;10249;48.900;9.090;2023-12-20T06:05:16;2.60;;;2.50;;
20179;SDS011;10249;48.900;9.090;2023-12-20T06:07:43;2.80;;;2.70;;
20179;SDS011;10249;48.900;9.090;2023-12-20T06:10:13;2.80;;;2.70;;
20179;SDS011;10249;48.900;9.090;2023-12-20T06:12:40;3.73;;;3.43;;
20179;SDS011;10249;48.900;9.090;2023-12-20T06:15:07;3.07;;;2.80;;
20179;SDS011;10249;48.900;9.090;2023-12-20T06:17:34;2.97;;;2.87;;
20179;SDS011;10249;48.900;9.090;2023-12-20T06:20:01;3.20;;;3.10;;
20179;SDS011;10249;48.900;9.090;2023-12-20T06:22:34;2.97;;;2.87;;
20179;SDS011;10249;48.900;9.090;2023-12-20T06:25:01;3.13;;;3.03;;
20179;SDS011;10249;48.900;9.090;2023-12-20T06:27:28;2.90;;;2.80;;
20179;SDS011;10249;48.900;9.090;2023-12-20T06:29:57;3.20;;;3.10;;
20179;SDS011;10249;48.900;9.090;2023-12-20T06:32:25;3.63;;;3.43;;
20179;SDS011;10249;48.900;9.090;2023-12-20T06:34:54;3.93;;;3.83;;
20179;SDS011;10249;48.900;9.090;2023-12-20T06:37:21;3.10;;;3.00;;
20179;SDS011;10249;48.900;9.090;2023-12-20T06:39:49;3.33;;;3.23;;
20179;SDS011;10249;48.900;9.090;2023-12-20T06:42:16;4.40;;;4.20;;
20179;SDS011;10249;48.900;9.090;2023-12-20T06:44:43;4.40;;;4.30;;
20179;SDS011;10249;48.900;9.090;2023-12-20T06:47:10;3.60;;;3.50;;
20179;SDS011;10249;48.900;9.090;2023-12-20T06:49:39;4.63;;;4.45;;
20179;SDS011;10249;48.900;9.090;2023-12-20T06:52:06;4.60;;;4.40;;
20179;SDS011;10249;48.900;9.090;2023-12-20T06:54:33;3.97;;;3.87;;
20179;SDS011;10249;48.900;9.090;2023-12-20T06:57:01;4.53;;;4.30;;
20179;SDS011;10249;48.900;9.090;2023-12-20T06:59:29;4.43;;;4.23;;
20179;SDS011;10249;48.900;9.090;2023-12-20T07:01:56;5.10;;;4.83;;
20179;SDS011;10249;48.900;9.090;2023-12-20T07:04:23;4.17;;;4.03;;
20179;SDS011;10249;48.900;9.090;2023-12-20T07:06:50;3.60;;;3.50;;
20179;SDS011;10249;48.900;9.090;2023-12-20T07:09:21;3.40;;;3.30;;
20179;SDS011;10249;48.900;9.090;2023-12-20T07:11:48;4.80;;;4.50;;
20179;SDS011;10249;48.900;9.090;2023-12-20T07:14:17;4.13;;;3.93;;
20179;SDS011;10249;48.900;9.090;2023-12-20T07:16:44;4.13;;;3.77;;
20179;SDS011;10249;48.900;9.090;2023-12-20T07:19:11;3.83;;;3.63;;
20179;SDS011;10249;48.900;9.090;2023-12-20T07:21:38;3.87;;;3.67;;
20179;SDS011;10249;48.900;9.090;2023-12-20T07:24:05;4.50;;;4.30;;
20179;SDS011;10249;48.900;9.090;2023-12-20T07:26:32;5.80;;;5.50;;
20179;SDS011;10249;48.900;9.090;2023-12-20T07:29:00;4.83;;;4.73;;
20179;SDS011;10249;48.900;9.090;2023-12-20T07:31:29;5.53;;;5.27;;
20179;SDS011;10249;48.900;9.090;2023-12-20T07:33:57;5.30;;;5.10;;
20179;SDS011;10249;48.900;9.090;2023-12-20T07:36:24;5.33;;;5.13;;
20179;SDS011;10249;48.900;9.090;2023-12-20T07:38:51;6.60;;;6.33;;
20179;SDS011;10249;48.900;9.090;2023-12-20T07:41:18;7.00;;;5.70;;
20179;SDS011;10249;48.900;9.090;2023-12-20T07:43:46;6.40;;;6.00;;
20179;SDS011;10249;48.900;9.090;2023-12-20T07:46:14;8.50;;;7.90;;
20179;SDS011;10249;48.900;9.090;2023-12-20T07:48:42;6.37;;;6.17;;
20179;SDS011;10249;48.900;9.090;2023-12-20T07:51:11;6.90;;;6.53;;
20179;SDS011;10249;48.900;9.090;2023-12-20T07:53:38;7.67;;;7.37;;
20179;SDS011;10249;48.900;9.090;2023-12-20T07:56:13;7.00;;;6.80;;
20179;SDS011;10249;48.900;9.090;2023-12-20T07:58:40;6.67;;;6.37;;
20179;SDS011;10249;48.900;9.090;2023-12-20T08:01:07;6.77;;;6.57;;
20179;SDS011;10249;48.900;9.090;2023-12-20T08:03:34;6.10;;;5.90;;
20179;SDS011;10249;48.900;9.090;2023-12-20T08:06:03;6.40;;;6.20;;
20179;SDS011;10249;48.900;9.090;2023-12-20T08:08:30;6.60;;;6.40;;
20179;SDS011;10249;48.900;9.090;2023-12-20T08:10:57;7.47;;;7.17;;
20179;SDS011;10249;48.900;9.090;2023-12-20T08:13:25;6.70;;;6.50;;
20179;SDS011;10249;48.900;9.090;2023-12-20T08:15:52;8.03;;;7.73;;
20179;SDS011;10249;48.900;9.090;2023-12-20T08:18:21;7.00;;;6.80;;
20179;SDS011;10249;48.900;9.090;2023-12-20T08:20:48;6.73;;;6.53;;
20179;SDS011;10249;48.900;9.090;2023-12-20T08:23:19;7.03;;;6.73;;
20179;SDS011;10249;48.900;9.090;2023-12-20T08:25:46;7.40;;;7.10;;
20179;SDS011;10249;48.900;9.090;2023-12-20T08:28:14;7.80;;;7.50;;
20179;SDS011;10249;48.900;9.090;2023-12-20T08:30:41;7.40;;;7.10;;
20179;SDS011;10249;48.900;9.090;2023-12-20T08:33:08;7.00;;;6.80;;
20179;SDS011;10249;48.900;9.090;2023-12-20T08:35:37;12.60;;;7.30;;
20179;SDS011;10249;48.900;9.090;2023-12-20T08:38:05;7.43;;;7.13;;
20179;SDS011;10249;48.900;9.090;2023-12-20T08:40:33;7.13;;;6.93;;
20179;SDS011;10249;48.900;9.090;2023-12-20T08:43:00;7.20;;;7.00;;
20179;SDS011;10249;48.900;9.090;2023-12-20T08:45:28;7.17;;;6.97;;
20179;SDS011;10249;48.900;9.090;2023-12-20T08:47:55;7.70;;;7.40;;
20179;SDS011;10249;48.900;9.090;2023-12-20T08:50:22;7.47;;;7.27;;
20179;SDS011;10249;48.900;9.090;2023-12-20T08:52:50;7.67;;;7.37;;
20179;SDS011;10249;48.900;9.090;2023-12-20T08:55:18;8.20;;;7.90;;
20179;SDS011;10249;48.900;9.090;2023-12-20T08:57:47;7.10;;;6.90;;
20179;SDS011;10249;48.900;9.090;2023-12-20T09:00:15;7.50;;;7.30;;
20179;SDS011;10249;48.900;9.090;2023-12-20T09:02:45;7.50;;;7.20;;
20179;SDS011;10249;48.900;9.090;2023-12-20T09:05:12;7.30;;;7.10;;
20179;SDS011;10249;48.900;9.090;2023-12-20T09:07:39;8.03;;;7.73;;
20179;SDS011;10249;48.900;9.090;2023-12-20T09:10:06;8.67;;;8.17;;
20179;SDS011;10249;48.900;9.090;2023-12-20T09:12:33;9.60;;;8.80;;
20179;SDS011;10249;48.900;9.090;2023-12-20T09:15:02;8.00;;;7.70;;
20179;SDS011;10249;48.900;9.090;2023-12-20T09:17:30;8.13;;;7.83;;
20179;SDS011;10249;48.900;9.090;2023-12-20T09:19:57;8.23;;;7.93;;
20179;SDS011;10249;48.900;9.090;2023-12-20T09:22:25;8.00;;;7.70;;
20179;SDS011;10249;48.900;9.090;2023-12-20T09:24:53;7.80;;;7.60;;
20179;SDS011;10249;48.900;9.090;2023-12-20T09:27:20;8.67;;;8.37;;
20179;SDS011;10249;48.900;9.090;2023-12-20T09:29:47;8.67;;;8.27;;
20179;SDS011;10249;48.900;9.090;2023-12-20T09:32:16;8.43;;;8.13;;
20179;SDS011;10249;48.900;9.090;2023-12-20T09:34:43;8.57;;;8.27;;
20179;SDS011;10249;48.900;9.090;2023-12-20T09:37:10;8.87;;;8.57;;
20179;SDS011;10249;48.900;9.090;2023-12-20T09:39:37;9.00;;;8.70;;
20179;SDS011;10249;48.900;9.090;2023-12-20T09:42:05;9.07;;;8.77;;
20179;SDS011;10249;48.900;9.090;2023-12-20T09:44:33;8.70;;;8.40;;
20179;SDS011;10249;48.900;9.090;2023-12-20T09:47:01;9.10;;;8.80;;
20179;SDS011;10249;48.900;9.090;2023-12-20T09:49:30;9.20;;;8.90;;
20179;SDS011;10249;48.900;9.090;2023-12-20T09:51:58;9.40;;;9.10;;
20179;SDS011;10249;48.900;9.090;2023-12-20T09:54:27;9.50;;;9.20;;
20179;SDS011;10249;48.900;9.090;2023-12-20T09:56:55;9.30;;;9.00;;
20179;SDS011;10249;48.900;9.090;2023-12-20T09:59:22;9.40;;;9.10;;
20179;SDS011;10249;48.900;9.090;2023-12-20T10:01:50;9.63;;;9.23;;
20179;SDS011;10249;48.900;9.090;2023-12-20T10:04:18;9.40;;;9.10;;
20179;SDS011;10249;48.900;9.090;2023-12-20T10:06:46;8.90;;;8.60;;
20179;SDS011;10249;48.900;9.090;2023-12-20T10:09:14;9.00;;;8.70;;
20179;SDS011;10249;48.900;9.090;2023-12-20T10:11:41;9.20;;;8.90;;
20179;SDS011;10249;48.900;9.090;2023-12-20T10:14:10;9.40;;;9.10;;
20179;SDS011;10249;48.900;9.090;2023-12-20T10:16:37;9.07;;;8.77;;
20179;SDS011;10249;48.900;9.090;2023-12-20T10:19:04;9.43;;;9.07;;
20179;SDS011;10249;48.900;9.090;2023-12-20T10:21:31;9.40;;;9.10;;
20179;SDS011;10249;48.900;9.090;2023-12-20T10:24:00;9.40;;;9.10;;
20179;SDS011;10249;48.900;9.090;2023-12-20T10:26:27;9.50;;;9.20;;
20179;SDS011;10249;48.900;9.090;2023-12-20T10:28:55;9.73;;;9.43;;
20179;SDS011;10249;48.900;9.090;2023-12-20T10:31:26;10.10;;;9.70;;
20179;SDS011;10249;48.900;9.090;2023-12-20T10:33:53;10.30;;;9.90;;
20179;SDS011;10249;48.900;9.090;2023-12-20T10:36:22;10.30;;;9.90;;
20179;SDS011;10249;48.900;9.090;2023-12-20T10:38:51;10.70;;;10.30;;
20179;SDS011;10249;48.900;9.090;2023-12-20T10:41:22;10.20;;;9.90;;
20179;SDS011;10249;48.900;9.090;2023-12-20T10:43:51;9.83;;;9.53;;
20179;SDS011;10249;48.900;9.090;2023-12-20T10:46:18;10.43;;;10.03;;
20179;SDS011;10249;48.900;9.090;2023-12-20T10:48:46;10.67;;;10.27;;
20179;SDS011;10249;48.900;9.090;2023-12-20T10:51:14;10.87;;;10.47;;
20179;SDS011;10249;48.900;9.090;2023-12-20T10:53:45;11.90;;;11.40;;
20179;SDS011;10249;48.900;9.090;2023-12-20T10:56:15;10.70;;;10.30;;
20179;SDS011;10249;48.900;9.090;2023-12-20T10:58:44;10.90;;;10.50;;
20179;SDS011;10249;48.900;9.090;2023-12-20T11:01:12;11.10;;;10.70;;
20179;SDS011;10249;48.900;9.090;2023-12-20T11:03:42;11.10;;;10.70;;
20179;SDS011;10249;48.900;9.090;2023-12-20T11:06:10;10.80;;;10.40;;
20179;SDS011;10249;48.900;9.090;2023-12-20T11:08:43;10.80;;;10.40;;
20179;SDS011;10249;48.900;9.090;2023-12-20T11:11:12;11.00;;;10.60;;
20179;SDS011;10249;48.900;9.090;2023-12-20T11:13:43;10.80;;;10.40;;
20179;SDS011;10249;48.900;9.090;2023-12-20T11:16:12;11.67;;;11.17;;
20179;SDS011;10249;48.900;9.090;2023-12-20T11:18:40;11.20;;;10.80;;
20179;SDS011;10249;48.900;9.090;2023-12-20T11:21:07;11.40;;;11.00;;
20179;SDS011;10249;48.900;9.090;2023-12-20T11:23:34;11.13;;;10.73;;
20179;SDS011;10249;48.900;9.090;2023-12-20T11:26:02;10.50;;;10.10;;
20179;SDS011;10249;48.900;9.090;2023-12-20T11:28:29;10.70;;;10.30;;
20179;SDS011;10249;48.900;9.090;2023-12-20T11:30:57;10.60;;;10.20;;
20179;SDS011;10249;48.900;9.090;2023-12-20T11:33:27;10.60;;;10.20;;
20179;SDS011;10249;48.900;9.090;2023-12-20T11:35:56;10.53;;;10.13;;
20179;SDS011;10249;48.900;9.090;2023-12-20T11:38:24;10.73;;;10.33;;
20179;SDS011;10249;48.900;9.090;2023-12-20T11:40:53;11.13;;;10.73;;
20179;SDS011;10249;48.900;9.090;2023-12-20T11:46:06;10.80;;;10.40;;
20179;SDS011;10249;48.900;9.090;2023-12-20T11:48:37;10.93;;;10.53;;
20179;SDS011;10249;48.900;9.090;2023-12-20T11:51:08;11.00;;;10.60;;
20179;SDS011;10249;48.900;9.090;2023-12-20T11:53:36;11.47;;;10.57;;
20179;SDS011;10249;48.900;9.090;2023-12-20T11:56:03;11.03;;;10.63;;
20179;SDS011;10249;48.900;9.090;2023-12-20T11:58:30;11.13;;;10.73;;
20179;SDS011;10249;48.900;9.090;2023-12-20T12:00:58;11.20;;;10.80;;
20179;SDS011;10249;48.900;9.090;2023-12-20T12:03:27;11.07;;;10.63;;
20179;SDS011;10249;48.900;9.090;2023-12-20T12:05:55;11.13;;;10.73;;
20179;SDS011;10249;48.900;9.090;2023-12-20T12:08:23;11.00;;;10.60;;
20179;SDS011;10249;48.900;9.090;2023-12-20T12:10:50;11.60;;;11.10;;
20179;SDS011;10249;48.900;9.090;2023-12-20T12:13:17;10.90;;;10.50;;
20179;SDS011;10249;48.900;9.090;2023-12-20T12:15:44;11.20;;;10.80;;
20179;SDS011;10249;48.900;9.090;2023-12-20T12:18:15;12.07;;;11.57;;
20179;SDS011;10249;48.900;9.090;2023-12-20T12:20:42;12.00;;;11.50;;
20179;SDS011;10249;48.900;9.090;2023-12-20T12:23:11;11.23;;;10.83;;
20179;SDS011;10249;48.900;9.090;2023-12-20T12:25:38;11.87;;;11.37;;
20179;SDS011;10249;48.900;9.090;2023-12-20T12:28:06;11.70;;;11.30;;
20179;SDS011;10249;48.900;9.090;2023-12-20T12:30:33;11.20;;;10.80;;
20179;SDS011;10249;48.900;9.090;2023-12-20T12:33:00;11.90;;;11.40;;
20179;SDS011;10249;48.900;9.090;2023-12-20T12:35:27;11.90;;;11.40;;
20179;SDS011;10249;48.900;9.090;2023-12-20T12:37:55;11.87;;;11.37;;
20179;SDS011;10249;48.900;9.090;2023-12-20T12:40:23;11.97;;;11.47;;
20179;SDS011;10249;48.900;9.090;2023-12-20T12:42:50;11.30;;;10.90;;
20179;SDS011;10249;48.900;9.090;2023-12-20T12:45:17;10.63;;;10.23;;
20179;SDS011;10249;48.900;9.090;2023-12-20T12:47:45;11.73;;;11.27;;
20179;SDS011;10249;48.900;9.090;2023-12-20T12:50:12;11.27;;;10.87;;
20179;SDS011;10249;48.900;9.090;2023-12-20T12:52:39;10.90;;;10.50;;
20179;SDS011;10249;48.900;9.090;2023-12-20T12:55:06;11.47;;;10.97;;
20179;SDS011;10249;48.900;9.090;2023-12-20T12:57:35;11.50;;;11.10;;
20179;SDS011;10249;48.900;9.090;2023-12-20T13:00:02;12.37;;;11.77;;
20179;SDS011;10249;48.900;9.090;2023-12-20T13:02:33;11.07;;;10.67;;
20179;SDS011;10249;48.900;9.090;2023-12-20T13:05:00;11.00;;;10.60;;
20179;SDS011;10249;48.900;9.090;2023-12-20T13:07:27;12.00;;;11.50;;
20179;SDS011;10249;48.900;9.090;2023-12-20T13:09:54;11.60;;;11.20;;
20179;SDS011;10249;48.900;9.090;2023-12-20T13:12:22;11.50;;;11.10;;
20179;SDS011;10249;48.900;9.090;2023-12-20T13:14:50;11.63;;;11.23;;
20179;SDS011;10249;48.900;9.090;2023-12-20T13:17:18;11.60;;;11.20;;
20179;SDS011;10249;48.900;9.090;2023-12-20T13:19:45;11.90;;;11.40;;
20179;SDS011;10249;48.900;9.090;2023-12-20T13:22:12;11.73;;;11.33;;
20179;SDS011;10249;48.900;9.090;2023-12-20T13:24:40;12.00;;;11.50;;
20179;SDS011;10249;48.900;9.090;2023-12-20T13:27:09;12.10;;;11.60;;
20179;SDS011;10249;48.900;9.090;2023-12-20T13:29:36;12.13;;;11.63;;
20179;SDS011;10249;48.900;9.090;2023-12-20T13:32:05;11.50;;;11.10;;
20179;SDS011;10249;48.900;9.090;2023-12-20T13:34:32;11.40;;;11.00;;
20179;SDS011;10249;48.900;9.090;2023-12-20T13:36:59;11.00;;;10.60;;
20179;SDS011;10249;48.900;9.090;2023-12-20T13:39:26;11.40;;;11.00;;
20179;SDS011;10249;48.900;9.090;2023-12-20T13:41:54;11.13;;;10.73;;
20179;SDS011;10249;48.900;9.090;2023-12-20T13:44:22;11.20;;;10.80;;
20179;SDS011;10249;48.900;9.090;2023-12-20T13:46:49;11.07;;;10.67;;
20179;SDS011;10249;48.900;9.090;2023-12-20T13:49:18;10.67;;;10.27;;
20179;SDS011;10249;48.900;9.090;2023-12-20T13:51:46;10.60;;;10.20;;
20179;SDS011;10249;48.900;9.090;2023-12-20T13:54:13;10.70;;;10.30;;
20179;SDS011;10249;48.900;9.090;2023-12-20T13:56:41;10.40;;;10.00;;
20179;SDS011;10249;48.900;9.090;2023-12-20T13:59:09;10.50;;;10.10;;
20179;SDS011;10249;48.900;9.090;2023-12-20T14:01:36;10.30;;;9.90;;
20179;SDS011;10249;48.900;9.090;2023-12-20T14:04:03;10.53;;;10.13;;
20179;SDS011;10249;48.900;9.090;2023-12-20T14:06:33;10.30;;;9.90;;
20179;SDS011;10249;48.900;9.090;2023-12-20T14:09:00;10.50;;;10.10;;
20179;SDS011;10249;48.900;9.090;2023-12-20T14:11:28;10.47;;;10.07;;
20179;SDS011;10249;48.900;9.090;2023-12-20T14:13:55;10.70;;;10.30;;
20179;SDS011;10249;48.900;9.090;2023-12-20T14:16:23;9.70;;;9.40;;
20179;SDS011;10249;48.900;9.090;2023-12-20T14:18:50;9.70;;;9.40;;
20179;SDS011;10249;48.900;9.090;2023-12-20T14:21:18;9.90;;;9.60;;
20179;SDS011;10249;48.900;9.090;2023-12-20T14:23:46;9.37;;;9.07;;
20179;SDS011;10249;48.900;9.090;2023-12-20T14:26:13;10.07;;;9.63;;
20179;SDS011;10249;48.900;9.090;2023-12-20T14:28:41;9.40;;;9.10;;
20179;SDS011;10249;48.900;9.090;2023-12-20T14:31:08;9.10;;;8.80;;
20179;SDS011;10249;48.900;9.090;2023-12-20T14:33:35;8.80;;;8.50;;
20179;SDS011;10249;48.900;9.090;2023-12-20T14:36:04;9.00;;;8.70;;
20179;SDS011;10249;48.900;9.090;2023-12-20T14:38:31;9.50;;;9.20;;
20179;SDS011;10249;48.900;9.090;2023-12-20T14:40:59;9.20;;;8.90;;
20179;SDS011;10249;48.900;9.090;2023-12-20T14:43:28;9.30;;;9.00;;
20179;SDS011;10249;48.900;9.090;2023-12-20T14:45:56;9.20;;;8.90;;